SBFZ

Pinto Martins – Fortaleza International Airport

Airport
ICAO code
SBFZ
IATA Code
FOR
Summary
ICAO Region
CARSAM
ICAO Territory
Location

Fortaleza, Caera

Serving
Fortaleza
Elevation
82 ft
Coordinates
3° 46' 33" S , 38° 31' 56" W
KCC
Aw
Metar
Observation
SBFZ 130300Z 10011KT 9999 SCT017 27/23 Q1016
Station
Fortaleza / pinto Martins
Date/Time
2022-08-13 03:00:00
Wind direction
100°
Wind speed
11 kts
Lowest cloud amount
scattered clouds
Temperature
27°C
Dew point
23°C
Humidity
78%
QNH
1016 hPa
Weather condition
n/a

Pinto Martins – Fortaleza International Airport (IATA: FOR, ICAO: SBFZ) is the airport serving Fortaleza, Brazil.

Climatology

Tropical savanna climate (Köppen climate classification Aw)

Runways

Designator Length Width Surface Rops
13/31 2545 45 ASP Yes/Yes

Airport map

Aerial View

SKYbrary Partners:

Safety knowledge contributed by: